createdAt,value
2017-11-01T07:39:12.065Z,9.12
2017-11-01T07:41:39.575Z,9.18
2017-11-01T07:44:07.044Z,9.20
2017-11-01T07:46:34.538Z,9.22
2017-11-01T07:49:02.016Z,9.23
2017-11-01T07:51:29.495Z,9.25
2017-11-01T07:53:57.024Z,9.24
2017-11-01T07:56:24.526Z,9.26
2017-11-01T07:58:52.043Z,9.26
2017-11-01T08:01:19.618Z,9.31
2017-11-01T08:03:47.198Z,9.34
2017-11-01T08:06:14.736Z,9.34
2017-11-01T08:08:42.268Z,9.35
2017-11-01T08:11:09.821Z,9.34
2017-11-01T08:13:37.272Z,9.33
2017-11-01T08:16:04.791Z,9.42
2017-11-01T08:18:32.411Z,9.41
2017-11-01T08:20:59.969Z,9.46
2017-11-01T08:23:28.520Z,9.46
2017-11-01T08:25:56.018Z,9.40
2017-11-01T08:28:24.825Z,9.39
2017-11-01T08:30:53.242Z,9.41
2017-11-01T08:33:20.915Z,9.42
2017-11-01T08:35:48.429Z,9.42
2017-11-01T08:38:15.968Z,9.41
2017-11-01T08:40:43.469Z,9.43
2017-11-01T08:43:11.017Z,9.42
2017-11-01T08:45:38.549Z,9.42
2017-11-01T08:48:06.116Z,9.48
2017-11-01T08:50:33.844Z,9.48
2017-11-01T08:55:43.298Z,9.55
2017-11-01T08:58:10.753Z,9.55
2017-11-01T09:00:38.264Z,9.57
2017-11-01T09:03:05.831Z,9.59
2017-11-01T09:05:33.356Z,9.57
2017-11-01T09:08:00.941Z,9.54
2017-11-01T09:10:28.518Z,9.56
2017-11-01T09:12:56.076Z,9.52
2017-11-01T09:15:23.626Z,9.54
2017-11-01T09:17:51.274Z,9.54
2017-11-01T09:20:18.978Z,9.53
2017-11-01T09:22:46.474Z,9.49
2017-11-01T09:25:13.951Z,9.50
2017-11-01T09:27:41.479Z,9.54
2017-11-01T09:30:09.059Z,9.52
2017-11-01T09:32:36.583Z,9.53
2017-11-01T09:35:04.076Z,9.52
2017-11-01T09:37:31.548Z,9.54
2017-11-01T09:39:59.119Z,9.51
2017-11-01T09:42:26.598Z,9.55
2017-11-01T09:44:54.331Z,9.61
2017-11-01T09:47:21.891Z,9.63
2017-11-01T09:49:49.436Z,9.65
2017-11-01T09:52:18.038Z,9.71
2017-11-01T09:54:46.523Z,9.70
2017-11-01T09:57:14.991Z,9.74
2017-11-01T09:59:43.517Z,9.77
2017-11-01T10:02:11.312Z,9.77
2017-11-01T10:04:38.908Z,9.79
2017-11-01T10:07:08.172Z,9.78
2017-11-01T10:09:35.685Z,9.85
2017-11-01T10:12:05.059Z,9.86
2017-11-01T10:14:35.306Z,9.90
2017-11-01T10:17:02.837Z,9.96
2017-11-01T10:19:30.917Z,9.99
2017-11-01T10:21:58.475Z,10.00
2017-11-01T10:24:25.971Z,10.03
2017-11-01T10:26:53.497Z,10.12
2017-11-01T10:29:21.012Z,10.16
2017-11-01T10:31:48.518Z,10.18
2017-11-01T10:34:16.049Z,10.21
2017-11-01T10:36:43.568Z,10.24
2017-11-01T10:39:11.121Z,10.30
2017-11-01T10:41:38.590Z,10.33
2017-11-01T10:44:06.110Z,10.34
2017-11-01T10:46:33.630Z,10.46
2017-11-01T10:49:01.181Z,10.55
2017-11-01T10:51:28.753Z,10.65
2017-11-01T10:53:56.239Z,10.71
2017-11-01T10:56:23.983Z,10.78
2017-11-01T10:58:51.471Z,10.80
2017-11-01T11:01:19.001Z,10.87
2017-11-01T11:03:46.468Z,10.91
2017-11-01T11:06:13.970Z,10.96
2017-11-01T11:08:41.479Z,11.02
2017-11-01T11:11:09.098Z,11.20
2017-11-01T11:13:36.650Z,11.30
2017-11-01T11:16:04.179Z,11.34
2017-11-01T11:18:31.704Z,11.32
2017-11-01T11:20:59.881Z,11.38
2017-11-01T11:23:27.385Z,11.35
2017-11-01T11:25:54.970Z,11.31
2017-11-01T11:28:22.527Z,11.31
2017-11-01T11:30:50.077Z,11.24
2017-11-01T11:33:17.637Z,11.20
2017-11-01T11:35:45.160Z,11.25
2017-11-01T11:38:22.946Z,11.22
2017-11-01T11:40:51.074Z,11.27
2017-11-01T11:43:19.776Z,11.27
2017-11-01T11:45:48.272Z,11.28
2017-11-01T11:48:18.377Z,11.22
2017-11-01T11:50:46.835Z,11.18
2017-11-01T11:53:16.640Z,11.26
2017-11-01T11:55:47.992Z,11.22
2017-11-01T11:58:15.689Z,11.23
2017-11-01T12:00:43.190Z,11.25
2017-11-01T12:03:10.697Z,11.20
2017-11-01T12:05:38.199Z,11.25
2017-11-01T12:08:05.702Z,11.32
2017-11-01T12:10:33.231Z,11.34
2017-11-01T12:13:00.748Z,11.34
2017-11-01T12:15:28.242Z,11.45
2017-11-01T12:17:55.744Z,11.39
2017-11-01T12:20:23.236Z,11.44
2017-11-01T12:22:50.890Z,11.48
2017-11-01T12:25:18.423Z,11.49
2017-11-01T12:27:45.921Z,11.45
2017-11-01T12:30:13.445Z,11.49
2017-11-01T12:32:40.980Z,11.47
2017-11-01T12:35:08.499Z,11.46
2017-11-01T12:37:35.998Z,11.50
2017-11-01T12:40:03.488Z,11.55
2017-11-01T12:42:30.986Z,11.55
2017-11-01T12:44:58.523Z,11.55
2017-11-01T12:47:26.020Z,11.60
2017-11-01T12:49:53.581Z,11.60
2017-11-01T12:52:21.091Z,11.60
2017-11-01T12:54:51.427Z,11.52
2017-11-01T12:57:19.855Z,11.56
2017-11-01T12:59:47.745Z,11.61
2017-11-01T13:02:17.412Z,11.63
2017-11-01T13:04:55.601Z,11.61
2017-11-01T13:07:29.139Z,11.60
2017-11-01T13:09:56.715Z,11.61
2017-11-01T13:12:24.923Z,11.63
2017-11-01T13:14:52.407Z,11.66
2017-11-01T13:17:19.995Z,11.69
2017-11-01T13:19:47.817Z,11.69
2017-11-01T13:22:15.771Z,11.58
2017-11-01T13:24:43.342Z,11.58
2017-11-01T13:27:10.916Z,11.56
2017-11-01T13:29:39.782Z,11.59
2017-11-01T13:32:07.948Z,11.58
2017-11-01T13:34:35.688Z,11.59
2017-11-01T13:37:11.321Z,11.58
2017-11-01T13:39:39.334Z,11.58
2017-11-01T13:42:07.008Z,11.53
2017-11-01T13:44:34.578Z,11.57
2017-11-01T13:47:02.082Z,11.60
2017-11-01T13:49:29.630Z,11.56
2017-11-01T13:52:00.350Z,11.63
2017-11-01T13:54:28.286Z,11.63
2017-11-01T13:56:55.782Z,11.64
2017-11-01T13:59:25.881Z,11.67
2017-11-01T14:01:53.594Z,11.64
2017-11-01T14:04:21.219Z,11.64
2017-11-01T14:06:50.370Z,11.70
2017-11-01T14:09:17.920Z,11.70
2017-11-01T14:11:45.377Z,11.69
2017-11-01T14:14:12.930Z,11.69
2017-11-01T14:16:40.772Z,11.62
2017-11-01T14:19:08.259Z,11.62
2017-11-01T14:21:36.334Z,11.66
2017-11-01T14:24:04.110Z,11.62
2017-11-01T14:26:31.642Z,11.66
2017-11-01T14:28:59.214Z,11.62
2017-11-01T14:31:26.836Z,11.61
2017-11-01T14:33:54.492Z,11.60
2017-11-01T14:36:21.965Z,11.59
2017-11-01T14:38:49.515Z,11.60
2017-11-01T14:41:17.052Z,11.60
2017-11-01T14:43:44.546Z,11.61
2017-11-01T14:46:12.176Z,11.63
2017-11-01T14:48:39.826Z,11.65
2017-11-01T14:51:07.348Z,11.65
2017-11-01T14:53:34.917Z,11.64
2017-11-01T14:56:02.423Z,11.68
2017-11-01T14:58:30.277Z,11.67
2017-11-01T15:00:57.748Z,11.62
2017-11-01T15:03:25.339Z,11.64
2017-11-01T15:05:52.932Z,11.64
2017-11-01T15:08:20.665Z,11.62
2017-11-01T15:10:48.188Z,11.56
2017-11-01T15:13:15.680Z,11.55
2017-11-01T15:15:43.498Z,11.56
2017-11-01T15:18:10.998Z,11.55
2017-11-01T15:20:38.582Z,11.58
2017-11-01T15:23:06.106Z,11.56
2017-11-01T15:25:33.630Z,11.59
2017-11-01T15:28:01.124Z,11.59
2017-11-01T15:30:28.631Z,11.56
2017-11-01T15:32:56.184Z,11.56
2017-11-01T15:35:23.695Z,11.57
2017-11-01T15:37:51.333Z,11.58
2017-11-01T15:40:18.993Z,11.56
2017-11-01T15:42:46.629Z,11.54
2017-11-01T15:45:14.180Z,11.52
2017-11-01T15:47:41.708Z,11.58
2017-11-01T15:50:09.193Z,11.57
2017-11-01T15:52:36.688Z,11.57
2017-11-01T15:55:04.283Z,11.53
2017-11-01T15:57:31.764Z,11.51
2017-11-01T15:59:59.290Z,11.53
2017-11-01T16:02:26.884Z,11.51
2017-11-01T16:04:54.405Z,11.51
2017-11-01T16:07:22.368Z,11.48
2017-11-01T16:09:49.903Z,11.46
2017-11-01T16:12:17.533Z,11.48
2017-11-01T16:14:45.004Z,11.44
2017-11-01T16:17:13.300Z,11.49
2017-11-01T16:19:40.829Z,11.47
2017-11-01T16:22:08.392Z,11.50
2017-11-01T16:24:35.900Z,11.52
2017-11-01T16:27:03.392Z,11.52
2017-11-01T16:29:30.922Z,11.48
2017-11-01T16:31:58.407Z,11.48
2017-11-01T16:34:25.968Z,11.46
2017-11-01T16:36:53.507Z,11.43
2017-11-01T16:39:21.057Z,11.41
2017-11-01T16:41:48.686Z,11.36
2017-11-01T16:44:16.179Z,11.40
2017-11-01T16:46:43.752Z,11.39
2017-11-01T16:49:11.245Z,11.37
2017-11-01T16:51:38.851Z,11.36
2017-11-01T16:54:06.329Z,11.40
2017-11-01T16:56:33.815Z,11.43
2017-11-01T16:59:01.626Z,11.44
2017-11-01T17:01:29.235Z,11.44
2017-11-01T17:03:56.823Z,11.47
2017-11-01T17:06:24.386Z,11.49
2017-11-01T17:08:51.996Z,11.47
2017-11-01T17:11:19.524Z,11.41
2017-11-01T17:13:47.060Z,11.38
2017-11-01T17:16:14.625Z,11.36
2017-11-01T17:18:42.121Z,11.38
2017-11-01T17:21:09.663Z,11.41
2017-11-01T17:23:37.157Z,11.44
2017-11-01T17:26:04.700Z,11.41
2017-11-01T17:28:32.188Z,11.41
2017-11-01T17:30:59.759Z,11.41
2017-11-01T17:33:27.264Z,11.44
2017-11-01T17:35:54.787Z,11.46
2017-11-01T17:38:22.342Z,11.50
2017-11-01T17:40:49.849Z,11.49
2017-11-01T17:43:17.370Z,11.46
2017-11-01T17:45:44.859Z,11.44
2017-11-01T17:48:12.335Z,11.44
2017-11-01T17:50:39.880Z,11.39
2017-11-01T17:53:07.429Z,11.35
2017-11-01T17:55:34.953Z,11.35
2017-11-01T17:58:02.539Z,11.33
2017-11-01T18:00:30.085Z,11.31
2017-11-01T18:02:57.614Z,11.30
2017-11-01T18:05:25.104Z,11.28
2017-11-01T18:07:58.129Z,11.28
2017-11-01T18:10:25.679Z,11.26
2017-11-01T18:12:53.174Z,11.25
2017-11-01T18:15:20.668Z,11.25
2017-11-01T18:17:48.198Z,11.23
2017-11-01T18:20:15.711Z,11.20
2017-11-01T18:22:43.267Z,11.20
2017-11-01T18:25:10.733Z,11.16
2017-11-01T18:27:38.449Z,11.13
2017-11-01T18:30:05.953Z,11.15
2017-11-01T18:32:33.534Z,11.14
2017-11-01T18:35:01.067Z,11.12
2017-11-01T18:37:29.282Z,11.08
2017-11-01T18:39:56.784Z,11.08
2017-11-01T18:42:24.264Z,11.06
2017-11-01T18:44:51.801Z,11.08
2017-11-01T18:47:19.365Z,11.07
2017-11-01T18:49:47.688Z,11.07
2017-11-01T18:52:15.583Z,11.06
2017-11-01T18:54:43.156Z,11.09
2017-11-01T18:57:10.692Z,11.09
2017-11-01T18:59:38.224Z,11.08
2017-11-01T19:02:05.763Z,11.07
2017-11-01T19:04:33.505Z,11.06
2017-11-01T19:07:01.051Z,11.05
2017-11-01T19:09:28.603Z,11.03
2017-11-01T19:11:56.246Z,11.02
2017-11-01T19:14:23.766Z,11.02
2017-11-01T19:16:51.375Z,11.01
2017-11-01T19:19:18.872Z,11.01
2017-11-01T19:21:46.506Z,10.98
2017-11-01T19:24:13.973Z,10.97
2017-11-01T19:26:41.498Z,10.97
2017-11-01T19:29:09.145Z,10.99
2017-11-01T19:31:36.916Z,11.02
2017-11-01T19:34:04.413Z,11.00
2017-11-01T19:36:31.988Z,10.99
2017-11-01T19:38:59.636Z,10.97
2017-11-01T19:41:27.235Z,10.95
2017-11-01T19:43:54.826Z,10.95
2017-11-01T19:46:22.407Z,10.91
2017-11-01T19:48:50.093Z,10.92
2017-11-01T19:51:18.633Z,10.92
2017-11-01T19:53:46.190Z,10.91
2017-11-01T19:56:13.968Z,10.88
2017-11-01T19:58:41.508Z,10.88
2017-11-01T20:01:09.319Z,10.89
2017-11-01T20:03:36.846Z,10.88
2017-11-01T20:06:04.608Z,10.88
2017-11-01T20:08:32.393Z,10.87
2017-11-01T20:11:00.094Z,10.85
2017-11-01T20:13:27.646Z,10.83
2017-11-01T20:15:55.205Z,10.81
2017-11-01T20:18:22.762Z,10.78
2017-11-01T20:20:50.298Z,10.73
2017-11-01T20:23:17.870Z,10.69
2017-11-01T20:25:46.994Z,10.67
2017-11-01T20:28:15.588Z,10.63
2017-11-01T20:30:43.711Z,10.65
2017-11-01T20:33:11.264Z,10.61
2017-11-01T20:35:38.854Z,10.58
2017-11-01T20:38:11.379Z,10.58
2017-11-01T20:40:52.254Z,10.55
2017-11-01T20:43:20.057Z,10.53
2017-11-01T20:45:47.586Z,10.52
2017-11-01T20:48:15.382Z,10.50
2017-11-01T20:50:42.989Z,10.53
2017-11-01T20:53:10.470Z,10.54
2017-11-01T20:55:37.960Z,10.56
2017-11-01T20:58:05.530Z,10.59
2017-11-01T21:00:32.977Z,10.62
2017-11-01T21:03:00.474Z,10.62
2017-11-01T21:05:28.557Z,10.62
2017-11-01T21:07:57.084Z,10.62
2017-11-01T21:10:24.668Z,10.60
2017-11-01T21:12:52.178Z,10.60
2017-11-01T21:15:19.732Z,10.62
2017-11-01T21:17:47.317Z,10.61
2017-11-01T21:20:14.977Z,10.60
2017-11-01T21:22:42.490Z,10.63
2017-11-01T21:25:10.047Z,10.64
2017-11-01T21:27:37.537Z,10.65
2017-11-01T21:30:05.123Z,10.64
2017-11-01T21:32:32.635Z,10.65
2017-11-01T21:35:00.139Z,10.66
2017-11-01T21:37:27.618Z,10.63
2017-11-01T21:39:55.139Z,10.63
2017-11-01T21:42:22.640Z,10.61
2017-11-01T21:44:50.150Z,10.62
2017-11-01T21:47:17.668Z,10.61
2017-11-01T21:49:45.207Z,10.61
2017-11-01T21:52:12.696Z,10.59
2017-11-01T21:54:40.224Z,10.61
2017-11-01T21:57:07.692Z,10.63
2017-11-01T21:59:35.245Z,10.60
2017-11-01T22:02:02.746Z,10.59
2017-11-01T22:04:30.266Z,10.60
2017-11-01T22:06:57.754Z,10.59
2017-11-01T22:09:25.231Z,10.60
2017-11-01T22:11:52.723Z,10.59
2017-11-01T22:14:20.221Z,10.61
2017-11-01T22:16:47.739Z,10.59
2017-11-01T22:19:15.235Z,10.54
2017-11-01T22:21:43.650Z,10.52
2017-11-01T22:24:11.168Z,10.52
2017-11-01T22:26:38.652Z,10.49
2017-11-01T22:29:06.163Z,10.46
2017-11-01T22:31:33.688Z,10.42
2017-11-01T22:34:01.210Z,10.40
2017-11-01T22:36:28.762Z,10.36
2017-11-01T22:38:56.315Z,10.32
2017-11-01T22:41:23.834Z,10.31
2017-11-01T22:43:51.308Z,10.31
2017-11-01T22:46:18.777Z,10.30
2017-11-01T22:48:46.641Z,10.28
2017-11-01T22:51:14.103Z,10.31
2017-11-01T22:53:41.616Z,10.33
2017-11-01T22:56:09.129Z,10.33
2017-11-01T22:58:36.633Z,10.37
2017-11-01T23:01:04.130Z,10.38
2017-11-01T23:03:31.633Z,10.39
2017-11-01T23:05:59.157Z,10.40
2017-11-01T23:08:26.732Z,10.39
2017-11-01T23:10:54.207Z,10.38
2017-11-01T23:13:21.692Z,10.38
2017-11-01T23:15:49.222Z,10.36
2017-11-01T23:18:16.732Z,10.37
2017-11-01T23:20:44.199Z,10.40
2017-11-01T23:23:11.692Z,10.40
2017-11-01T23:25:39.204Z,10.38
2017-11-01T23:28:06.713Z,10.37
2017-11-01T23:30:34.199Z,10.47
2017-11-01T23:33:01.669Z,10.56
2017-11-01T23:35:29.165Z,10.64
2017-11-01T23:37:56.639Z,10.72
2017-11-01T23:40:24.116Z,10.77
2017-11-01T23:42:51.587Z,10.72
2017-11-01T23:45:19.081Z,10.67
2017-11-01T23:47:46.568Z,10.57
2017-11-01T23:50:14.036Z,10.51
2017-11-01T23:52:41.560Z,10.47
2017-11-01T23:55:09.082Z,10.41
2017-11-01T23:57:36.616Z,10.41
